sensor_id;sensor_type;location;lat;lon;timestamp;P1;durP1;ratioP1;P2;durP2;ratioP2
22287;SDS011;11312;51.464;6.968;2023-07-20T00:02:23;3.38;;;1.83;;
22287;SDS011;11312;51.464;6.968;2023-07-20T00:04:48;2.05;;;1.10;;
22287;SDS011;11312;51.464;6.968;2023-07-20T00:07:14;1.67;;;1.17;;
22287;SDS011;11312;51.464;6.968;2023-07-20T00:09:40;1.30;;;1.00;;
22287;SDS011;11312;51.464;6.968;2023-07-20T00:12:06;1.65;;;1.10;;
22287;SDS011;11312;51.464;6.968;2023-07-20T00:14:32;1.70;;;1.08;;
22287;SDS011;11312;51.464;6.968;2023-07-20T00:16:57;1.02;;;0.93;;
22287;SDS011;11312;51.464;6.968;2023-07-20T00:19:26;0.80;;;0.80;;
22287;SDS011;11312;51.464;6.968;2023-07-20T00:21:52;2.60;;;1.17;;
22287;SDS011;11312;51.464;6.968;2023-07-20T00:24:20;2.05;;;1.20;;
22287;SDS011;11312;51.464;6.968;2023-07-20T00:26:46;0.98;;;0.93;;
22287;SDS011;11312;51.464;6.968;2023-07-20T00:29:11;0.80;;;0.80;;
22287;SDS011;11312;51.464;6.968;2023-07-20T00:31:37;2.90;;;1.13;;
22287;SDS011;11312;51.464;6.968;2023-07-20T00:34:03;1.67;;;1.05;;
22287;SDS011;11312;51.464;6.968;2023-07-20T00:36:29;1.67;;;0.93;;
22287;SDS011;11312;51.464;6.968;2023-07-20T00:38:55;1.55;;;1.00;;
22287;SDS011;11312;51.464;6.968;2023-07-20T00:41:21;2.72;;;1.30;;
22287;SDS011;11312;51.464;6.968;2023-07-20T00:43:46;1.23;;;0.95;;
22287;SDS011;11312;51.464;6.968;2023-07-20T00:46:12;1.08;;;0.93;;
22287;SDS011;11312;51.464;6.968;2023-07-20T00:48:39;0.90;;;0.90;;
22287;SDS011;11312;51.464;6.968;2023-07-20T00:51:05;4.10;;;1.52;;
22287;SDS011;11312;51.464;6.968;2023-07-20T00:53:31;1.23;;;1.02;;
22287;SDS011;11312;51.464;6.968;2023-07-20T00:55:57;2.25;;;1.27;;
22287;SDS011;11312;51.464;6.968;2023-07-20T00:58:23;1.20;;;1.10;;
22287;SDS011;11312;51.464;6.968;2023-07-20T01:00:49;1.67;;;1.13;;
22287;SDS011;11312;51.464;6.968;2023-07-20T01:03:15;0.98;;;0.90;;
22287;SDS011;11312;51.464;6.968;2023-07-20T01:08:17;0.80;;;0.80;;
22287;SDS011;11312;51.464;6.968;2023-07-20T01:11:02;1.83;;;1.13;;
22287;SDS011;11312;51.464;6.968;2023-07-20T01:13:36;1.45;;;1.17;;
22287;SDS011;11312;51.464;6.968;2023-07-20T01:16:02;2.17;;;1.10;;
22287;SDS011;11312;51.464;6.968;2023-07-20T01:18:29;0.80;;;0.80;;
22287;SDS011;11312;51.464;6.968;2023-07-20T01:21:09;1.17;;;1.05;;
22287;SDS011;11312;51.464;6.968;2023-07-20T01:32:01;1.00;;;0.90;;
22287;SDS011;11312;51.464;6.968;2023-07-20T01:34:29;4.28;;;1.45;;
22287;SDS011;11312;51.464;6.968;2023-07-20T01:36:55;2.95;;;1.73;;
22287;SDS011;11312;51.464;6.968;2023-07-20T01:41:48;2.65;;;1.10;;
22287;SDS011;11312;51.464;6.968;2023-07-20T01:44:14;1.25;;;1.00;;
22287;SDS011;11312;51.464;6.968;2023-07-20T01:46:39;1.75;;;1.15;;
22287;SDS011;11312;51.464;6.968;2023-07-20T01:49:05;2.42;;;1.33;;
22287;SDS011;11312;51.464;6.968;2023-07-20T01:51:31;1.63;;;1.17;;
22287;SDS011;11312;51.464;6.968;2023-07-20T01:53:56;2.53;;;1.40;;
22287;SDS011;11312;51.464;6.968;2023-07-20T01:56:22;2.83;;;1.55;;
22287;SDS011;11312;51.464;6.968;2023-07-20T01:58:48;1.38;;;1.02;;
22287;SDS011;11312;51.464;6.968;2023-07-20T02:01:13;2.00;;;1.17;;
22287;SDS011;11312;51.464;6.968;2023-07-20T02:03:39;3.08;;;1.55;;
22287;SDS011;11312;51.464;6.968;2023-07-20T02:06:04;1.55;;;1.15;;
22287;SDS011;11312;51.464;6.968;2023-07-20T02:08:30;4.90;;;2.20;;
22287;SDS011;11312;51.464;6.968;2023-07-20T02:10:56;5.75;;;2.33;;
22287;SDS011;11312;51.464;6.968;2023-07-20T02:13:22;1.48;;;1.20;;
22287;SDS011;11312;51.464;6.968;2023-07-20T02:15:50;6.55;;;2.75;;
22287;SDS011;11312;51.464;6.968;2023-07-20T02:18:16;1.35;;;1.00;;
22287;SDS011;11312;51.464;6.968;2023-07-20T02:20:42;3.30;;;1.90;;
22287;SDS011;11312;51.464;6.968;2023-07-20T02:23:07;1.25;;;1.00;;
22287;SDS011;11312;51.464;6.968;2023-07-20T02:25:33;1.85;;;1.38;;
22287;SDS011;11312;51.464;6.968;2023-07-20T02:27:59;2.20;;;1.30;;
22287;SDS011;11312;51.464;6.968;2023-07-20T02:30:24;2.08;;;1.17;;
22287;SDS011;11312;51.464;6.968;2023-07-20T02:32:50;1.50;;;1.10;;
22287;SDS011;11312;51.464;6.968;2023-07-20T02:35:16;2.80;;;1.30;;
22287;SDS011;11312;51.464;6.968;2023-07-20T02:37:41;3.60;;;1.58;;
22287;SDS011;11312;51.464;6.968;2023-07-20T02:40:07;3.00;;;1.33;;
22287;SDS011;11312;51.464;6.968;2023-07-20T02:42:34;3.90;;;1.75;;
22287;SDS011;11312;51.464;6.968;2023-07-20T02:45:00;1.48;;;1.05;;
22287;SDS011;11312;51.464;6.968;2023-07-20T02:47:26;2.95;;;1.70;;
22287;SDS011;11312;51.464;6.968;2023-07-20T02:49:52;1.40;;;1.05;;
22287;SDS011;11312;51.464;6.968;2023-07-20T02:52:17;4.72;;;2.08;;
22287;SDS011;11312;51.464;6.968;2023-07-20T02:54:43;2.72;;;1.40;;
22287;SDS011;11312;51.464;6.968;2023-07-20T02:57:09;1.73;;;1.15;;
22287;SDS011;11312;51.464;6.968;2023-07-20T02:59:34;5.63;;;1.98;;
22287;SDS011;11312;51.464;6.968;2023-07-20T03:02:00;1.13;;;1.02;;
22287;SDS011;11312;51.464;6.968;2023-07-20T03:04:26;3.65;;;1.80;;
22287;SDS011;11312;51.464;6.968;2023-07-20T03:06:52;4.13;;;1.85;;
22287;SDS011;11312;51.464;6.968;2023-07-20T03:09:17;3.08;;;1.63;;
22287;SDS011;11312;51.464;6.968;2023-07-20T03:11:43;3.03;;;1.70;;
22287;SDS011;11312;51.464;6.968;2023-07-20T03:14:09;3.13;;;1.80;;
22287;SDS011;11312;51.464;6.968;2023-07-20T03:16:35;2.88;;;1.48;;
22287;SDS011;11312;51.464;6.968;2023-07-20T03:19:02;5.18;;;1.55;;
22287;SDS011;11312;51.464;6.968;2023-07-20T03:21:28;5.47;;;2.17;;
22287;SDS011;11312;51.464;6.968;2023-07-20T03:23:54;5.90;;;1.75;;
22287;SDS011;11312;51.464;6.968;2023-07-20T03:26:20;2.63;;;1.63;;
22287;SDS011;11312;51.464;6.968;2023-07-20T03:28:45;2.67;;;1.75;;
22287;SDS011;11312;51.464;6.968;2023-07-20T03:31:11;5.93;;;1.83;;
22287;SDS011;11312;51.464;6.968;2023-07-20T03:33:37;5.25;;;2.22;;
22287;SDS011;11312;51.464;6.968;2023-07-20T03:36:02;4.75;;;2.10;;
22287;SDS011;11312;51.464;6.968;2023-07-20T03:38:28;1.20;;;1.10;;
22287;SDS011;11312;51.464;6.968;2023-07-20T03:40:55;2.00;;;1.20;;
22287;SDS011;11312;51.464;6.968;2023-07-20T03:43:24;2.28;;;1.13;;
22287;SDS011;11312;51.464;6.968;2023-07-20T03:45:51;1.58;;;1.17;;
22287;SDS011;11312;51.464;6.968;2023-07-20T03:48:18;2.60;;;1.30;;
22287;SDS011;11312;51.464;6.968;2023-07-20T03:50:45;2.55;;;1.40;;
22287;SDS011;11312;51.464;6.968;2023-07-20T03:53:12;2.42;;;1.10;;
22287;SDS011;11312;51.464;6.968;2023-07-20T03:55:39;8.73;;;1.73;;
22287;SDS011;11312;51.464;6.968;2023-07-20T03:58:06;2.05;;;1.13;;
22287;SDS011;11312;51.464;6.968;2023-07-20T04:00:33;1.67;;;1.20;;
22287;SDS011;11312;51.464;6.968;2023-07-20T04:02:59;2.30;;;1.27;;
22287;SDS011;11312;51.464;6.968;2023-07-20T04:05:25;4.97;;;2.33;;
22287;SDS011;11312;51.464;6.968;2023-07-20T04:07:51;1.83;;;1.20;;
22287;SDS011;11312;51.464;6.968;2023-07-20T04:10:17;2.70;;;1.33;;
22287;SDS011;11312;51.464;6.968;2023-07-20T04:12:43;3.88;;;1.52;;
22287;SDS011;11312;51.464;6.968;2023-07-20T04:15:10;3.20;;;1.52;;
22287;SDS011;11312;51.464;6.968;2023-07-20T04:17:35;4.80;;;2.00;;
22287;SDS011;11312;51.464;6.968;2023-07-20T04:20:01;4.50;;;1.63;;
22287;SDS011;11312;51.464;6.968;2023-07-20T04:22:28;4.40;;;1.95;;
22287;SDS011;11312;51.464;6.968;2023-07-20T04:24:53;3.35;;;1.50;;
22287;SDS011;11312;51.464;6.968;2023-07-20T04:27:19;3.83;;;1.85;;
22287;SDS011;11312;51.464;6.968;2023-07-20T04:29:45;3.78;;;1.77;;
22287;SDS011;11312;51.464;6.968;2023-07-20T04:32:10;3.05;;;1.50;;
22287;SDS011;11312;51.464;6.968;2023-07-20T04:34:36;3.30;;;1.55;;
22287;SDS011;11312;51.464;6.968;2023-07-20T04:37:02;2.45;;;1.23;;
22287;SDS011;11312;51.464;6.968;2023-07-20T04:39:29;5.07;;;1.85;;
22287;SDS011;11312;51.464;6.968;2023-07-20T04:41:55;3.72;;;1.63;;
22287;SDS011;11312;51.464;6.968;2023-07-20T04:44:21;4.85;;;1.98;;
22287;SDS011;11312;51.464;6.968;2023-07-20T04:46:47;4.72;;;1.85;;
22287;SDS011;11312;51.464;6.968;2023-07-20T04:49:12;3.72;;;1.63;;
22287;SDS011;11312;51.464;6.968;2023-07-20T04:51:38;2.85;;;1.45;;
22287;SDS011;11312;51.464;6.968;2023-07-20T04:54:04;4.90;;;2.25;;
22287;SDS011;11312;51.464;6.968;2023-07-20T04:56:29;3.78;;;1.83;;
22287;SDS011;11312;51.464;6.968;2023-07-20T04:58:55;5.18;;;1.88;;
22287;SDS011;11312;51.464;6.968;2023-07-20T05:01:22;20.50;;;2.30;;
22287;SDS011;11312;51.464;6.968;2023-07-20T05:03:48;4.10;;;1.58;;
22287;SDS011;11312;51.464;6.968;2023-07-20T05:06:14;4.07;;;1.73;;
22287;SDS011;11312;51.464;6.968;2023-07-20T05:08:39;1.70;;;1.15;;
22287;SDS011;11312;51.464;6.968;2023-07-20T05:11:05;3.00;;;1.40;;
22287;SDS011;11312;51.464;6.968;2023-07-20T05:13:32;3.50;;;1.75;;
22287;SDS011;11312;51.464;6.968;2023-07-20T05:15:58;2.47;;;1.30;;
22287;SDS011;11312;51.464;6.968;2023-07-20T05:18:23;3.08;;;1.52;;
22287;SDS011;11312;51.464;6.968;2023-07-20T05:20:49;3.08;;;1.52;;
22287;SDS011;11312;51.464;6.968;2023-07-20T05:23:16;3.42;;;1.20;;
22287;SDS011;11312;51.464;6.968;2023-07-20T05:25:43;1.98;;;1.27;;
22287;SDS011;11312;51.464;6.968;2023-07-20T05:28:09;4.80;;;1.40;;
22287;SDS011;11312;51.464;6.968;2023-07-20T05:30:34;4.15;;;1.90;;
22287;SDS011;11312;51.464;6.968;2023-07-20T05:33:00;3.80;;;1.55;;
22287;SDS011;11312;51.464;6.968;2023-07-20T05:35:26;4.13;;;1.77;;
22287;SDS011;11312;51.464;6.968;2023-07-20T05:37:51;2.53;;;1.45;;
22287;SDS011;11312;51.464;6.968;2023-07-20T05:40:17;4.07;;;2.10;;
22287;SDS011;11312;51.464;6.968;2023-07-20T05:42:47;1.88;;;1.10;;
22287;SDS011;11312;51.464;6.968;2023-07-20T05:45:13;2.58;;;1.40;;
22287;SDS011;11312;51.464;6.968;2023-07-20T05:47:41;14.95;;;1.70;;
22287;SDS011;11312;51.464;6.968;2023-07-20T05:50:07;2.95;;;1.58;;
22287;SDS011;11312;51.464;6.968;2023-07-20T05:52:33;3.00;;;1.35;;
22287;SDS011;11312;51.464;6.968;2023-07-20T05:54:58;3.28;;;1.58;;
22287;SDS011;11312;51.464;6.968;2023-07-20T05:57:24;1.92;;;1.30;;
22287;SDS011;11312;51.464;6.968;2023-07-20T05:59:50;2.05;;;1.20;;
22287;SDS011;11312;51.464;6.968;2023-07-20T06:02:15;3.33;;;1.63;;
22287;SDS011;11312;51.464;6.968;2023-07-20T06:04:41;1.20;;;1.00;;
22287;SDS011;11312;51.464;6.968;2023-07-20T06:07:07;2.22;;;1.20;;
22287;SDS011;11312;51.464;6.968;2023-07-20T06:09:33;2.65;;;1.30;;
22287;SDS011;11312;51.464;6.968;2023-07-20T06:11:59;1.20;;;1.00;;
22287;SDS011;11312;51.464;6.968;2023-07-20T06:14:24;1.42;;;1.10;;
22287;SDS011;11312;51.464;6.968;2023-07-20T06:16:50;1.92;;;1.20;;
22287;SDS011;11312;51.464;6.968;2023-07-20T06:19:16;2.15;;;1.20;;
22287;SDS011;11312;51.464;6.968;2023-07-20T06:21:42;1.65;;;0.98;;
22287;SDS011;11312;51.464;6.968;2023-07-20T06:24:08;1.92;;;1.17;;
22287;SDS011;11312;51.464;6.968;2023-07-20T06:26:34;1.98;;;1.13;;
22287;SDS011;11312;51.464;6.968;2023-07-20T06:29:05;2.13;;;1.20;;
22287;SDS011;11312;51.464;6.968;2023-07-20T06:31:31;1.33;;;1.10;;
22287;SDS011;11312;51.464;6.968;2023-07-20T06:33:58;1.08;;;0.98;;
22287;SDS011;11312;51.464;6.968;2023-07-20T06:36:23;3.00;;;1.55;;
22287;SDS011;11312;51.464;6.968;2023-07-20T06:38:51;4.55;;;1.58;;
22287;SDS011;11312;51.464;6.968;2023-07-20T06:41:17;3.72;;;1.55;;
22287;SDS011;11312;51.464;6.968;2023-07-20T06:43:43;4.20;;;1.75;;
22287;SDS011;11312;51.464;6.968;2023-07-20T06:46:08;5.90;;;1.98;;
22287;SDS011;11312;51.464;6.968;2023-07-20T06:48:34;2.45;;;1.13;;
22287;SDS011;11312;51.464;6.968;2023-07-20T06:50:59;2.63;;;1.27;;
22287;SDS011;11312;51.464;6.968;2023-07-20T06:53:25;4.40;;;1.30;;
22287;SDS011;11312;51.464;6.968;2023-07-20T06:55:51;2.45;;;1.48;;
22287;SDS011;11312;51.464;6.968;2023-07-20T06:58:16;2.15;;;1.27;;
22287;SDS011;11312;51.464;6.968;2023-07-20T07:00:43;3.42;;;1.45;;
22287;SDS011;11312;51.464;6.968;2023-07-20T07:03:09;3.25;;;1.52;;
22287;SDS011;11312;51.464;6.968;2023-07-20T07:05:38;1.30;;;1.00;;
22287;SDS011;11312;51.464;6.968;2023-07-20T07:08:04;3.08;;;1.38;;
22287;SDS011;11312;51.464;6.968;2023-07-20T07:10:30;1.95;;;1.15;;
22287;SDS011;11312;51.464;6.968;2023-07-20T07:12:57;1.20;;;1.00;;
22287;SDS011;11312;51.464;6.968;2023-07-20T07:15:22;1.30;;;1.00;;
22287;SDS011;11312;51.464;6.968;2023-07-20T07:17:48;2.47;;;1.38;;
22287;SDS011;11312;51.464;6.968;2023-07-20T07:20:14;1.35;;;0.93;;
22287;SDS011;11312;51.464;6.968;2023-07-20T07:22:40;2.58;;;1.00;;
22287;SDS011;11312;51.464;6.968;2023-07-20T07:25:10;2.55;;;1.13;;
22287;SDS011;11312;51.464;6.968;2023-07-20T07:27:36;1.00;;;0.90;;
22287;SDS011;11312;51.464;6.968;2023-07-20T07:30:02;0.80;;;0.80;;
22287;SDS011;11312;51.464;6.968;2023-07-20T07:32:28;1.27;;;0.98;;
22287;SDS011;11312;51.464;6.968;2023-07-20T07:34:54;2.58;;;0.82;;
22287;SDS011;11312;51.464;6.968;2023-07-20T07:37:20;1.27;;;0.85;;
22287;SDS011;11312;51.464;6.968;2023-07-20T07:39:46;1.67;;;0.98;;
22287;SDS011;11312;51.464;6.968;2023-07-20T07:42:12;0.77;;;0.77;;
22287;SDS011;11312;51.464;6.968;2023-07-20T07:44:38;2.15;;;1.13;;
22287;SDS011;11312;51.464;6.968;2023-07-20T07:47:03;1.55;;;1.10;;
22287;SDS011;11312;51.464;6.968;2023-07-20T07:49:29;0.88;;;0.88;;
22287;SDS011;11312;51.464;6.968;2023-07-20T07:51:56;2.40;;;1.10;;
22287;SDS011;11312;51.464;6.968;2023-07-20T07:54:22;2.20;;;1.00;;
22287;SDS011;11312;51.464;6.968;2023-07-20T07:56:47;1.92;;;1.08;;
22287;SDS011;11312;51.464;6.968;2023-07-20T07:59:13;2.10;;;0.93;;
22287;SDS011;11312;51.464;6.968;2023-07-20T08:01:39;1.08;;;0.88;;
22287;SDS011;11312;51.464;6.968;2023-07-20T08:04:05;2.30;;;1.10;;
22287;SDS011;11312;51.464;6.968;2023-07-20T08:06:30;1.27;;;0.88;;
22287;SDS011;11312;51.464;6.968;2023-07-20T08:08:56;1.85;;;0.77;;
22287;SDS011;11312;51.464;6.968;2023-07-20T08:11:23;0.80;;;0.80;;
22287;SDS011;11312;51.464;6.968;2023-07-20T08:13:49;2.47;;;1.00;;
22287;SDS011;11312;51.464;6.968;2023-07-20T08:16:15;1.35;;;0.88;;
22287;SDS011;11312;51.464;6.968;2023-07-20T08:18:40;1.00;;;0.80;;
22287;SDS011;11312;51.464;6.968;2023-07-20T08:21:06;0.63;;;0.63;;
22287;SDS011;11312;51.464;6.968;2023-07-20T08:23:32;0.60;;;0.60;;
22287;SDS011;11312;51.464;6.968;2023-07-20T08:25:58;0.47;;;0.47;;
22287;SDS011;11312;51.464;6.968;2023-07-20T08:28:23;0.60;;;0.45;;
22287;SDS011;11312;51.464;6.968;2023-07-20T08:30:51;0.77;;;0.70;;
22287;SDS011;11312;51.464;6.968;2023-07-20T08:33:17;2.28;;;1.40;;
22287;SDS011;11312;51.464;6.968;2023-07-20T08:35:44;0.75;;;0.63;;
22287;SDS011;11312;51.464;6.968;2023-07-20T08:38:11;0.60;;;0.60;;
22287;SDS011;11312;51.464;6.968;2023-07-20T08:40:41;0.40;;;0.40;;
22287;SDS011;11312;51.464;6.968;2023-07-20T08:43:12;0.63;;;0.50;;
22287;SDS011;11312;51.464;6.968;2023-07-20T08:45:38;0.47;;;0.47;;
22287;SDS011;11312;51.464;6.968;2023-07-20T08:48:05;0.40;;;0.40;;
22287;SDS011;11312;51.464;6.968;2023-07-20T08:50:32;0.50;;;0.50;;
22287;SDS011;11312;51.464;6.968;2023-07-20T08:52:59;0.40;;;0.40;;
22287;SDS011;11312;51.464;6.968;2023-07-20T08:55:28;0.50;;;0.50;;
22287;SDS011;11312;51.464;6.968;2023-07-20T08:57:55;0.47;;;0.47;;
22287;SDS011;11312;51.464;6.968;2023-07-20T09:00:22;0.32;;;0.32;;
22287;SDS011;11312;51.464;6.968;2023-07-20T09:02:49;0.80;;;0.50;;
22287;SDS011;11312;51.464;6.968;2023-07-20T09:05:19;1.25;;;0.50;;
22287;SDS011;11312;51.464;6.968;2023-07-20T09:07:45;0.40;;;0.40;;
22287;SDS011;11312;51.464;6.968;2023-07-20T09:10:12;0.55;;;0.50;;
22287;SDS011;11312;51.464;6.968;2023-07-20T09:12:41;0.57;;;0.45;;
22287;SDS011;11312;51.464;6.968;2023-07-20T09:15:09;0.17;;;0.17;;
22287;SDS011;11312;51.464;6.968;2023-07-20T09:17:35;0.70;;;0.57;;
22287;SDS011;11312;51.464;6.968;2023-07-20T09:20:06;0.50;;;0.50;;
22287;SDS011;11312;51.464;6.968;2023-07-20T09:22:35;0.30;;;0.30;;
22287;SDS011;11312;51.464;6.968;2023-07-20T09:25:10;0.40;;;0.40;;
22287;SDS011;11312;51.464;6.968;2023-07-20T09:27:38;0.85;;;0.70;;
22287;SDS011;11312;51.464;6.968;2023-07-20T09:30:05;0.30;;;0.30;;
22287;SDS011;11312;51.464;6.968;2023-07-20T09:32:43;0.40;;;0.40;;
22287;SDS011;11312;51.464;6.968;2023-07-20T09:35:16;0.30;;;0.30;;
22287;SDS011;11312;51.464;6.968;2023-07-20T09:37:46;0.50;;;0.50;;
22287;SDS011;11312;51.464;6.968;2023-07-20T09:40:19;0.35;;;0.25;;
22287;SDS011;11312;51.464;6.968;2023-07-20T09:42:46;0.30;;;0.30;;
22287;SDS011;11312;51.464;6.968;2023-07-20T09:45:12;0.20;;;0.20;;
22287;SDS011;11312;51.464;6.968;2023-07-20T09:47:39;1.13;;;0.77;;
22287;SDS011;11312;51.464;6.968;2023-07-20T09:50:05;0.30;;;0.30;;
22287;SDS011;11312;51.464;6.968;2023-07-20T09:52:39;0.45;;;0.45;;
22287;SDS011;11312;51.464;6.968;2023-07-20T09:55:08;0.30;;;0.30;;
22287;SDS011;11312;51.464;6.968;2023-07-20T09:57:36;0.47;;;0.47;;
22287;SDS011;11312;51.464;6.968;2023-07-20T10:00:06;0.30;;;0.30;;
22287;SDS011;11312;51.464;6.968;2023-07-20T10:02:36;0.50;;;0.50;;
22287;SDS011;11312;51.464;6.968;2023-07-20T10:05:08;0.40;;;0.40;;
22287;SDS011;11312;51.464;6.968;2023-07-20T10:07:36;0.32;;;0.32;;
22287;SDS011;11312;51.464;6.968;2023-07-20T10:10:08;0.38;;;0.38;;
22287;SDS011;11312;51.464;6.968;2023-07-20T10:12:36;0.40;;;0.40;;
22287;SDS011;11312;51.464;6.968;2023-07-20T10:17:47;0.40;;;0.40;;
22287;SDS011;11312;51.464;6.968;2023-07-20T10:20:24;0.45;;;0.45;;
22287;SDS011;11312;51.464;6.968;2023-07-20T10:22:52;0.63;;;0.60;;
22287;SDS011;11312;51.464;6.968;2023-07-20T10:25:20;0.43;;;0.43;;
22287;SDS011;11312;51.464;6.968;2023-07-20T10:27:48;0.32;;;0.32;;
22287;SDS011;11312;51.464;6.968;2023-07-20T10:30:14;0.30;;;0.30;;
22287;SDS011;11312;51.464;6.968;2023-07-20T10:32:40;0.20;;;0.20;;
22287;SDS011;11312;51.464;6.968;2023-07-20T10:35:16;0.98;;;0.52;;
22287;SDS011;11312;51.464;6.968;2023-07-20T10:40:31;0.35;;;0.35;;
22287;SDS011;11312;51.464;6.968;2023-07-20T10:42:58;0.73;;;0.40;;
22287;SDS011;11312;51.464;6.968;2023-07-20T10:45:35;0.65;;;0.30;;
22287;SDS011;11312;51.464;6.968;2023-07-20T10:48:12;0.20;;;0.20;;
22287;SDS011;11312;51.464;6.968;2023-07-20T10:50:44;1.20;;;0.47;;
22287;SDS011;11312;51.464;6.968;2023-07-20T10:53:18;0.30;;;0.30;;
22287;SDS011;11312;51.464;6.968;2023-07-20T10:55:44;0.88;;;0.30;;
22287;SDS011;11312;51.464;6.968;2023-07-20T10:58:14;0.55;;;0.32;;
22287;SDS011;11312;51.464;6.968;2023-07-20T11:01:02;0.30;;;0.30;;
22287;SDS011;11312;51.464;6.968;2023-07-20T11:03:32;1.15;;;0.52;;
22287;SDS011;11312;51.464;6.968;2023-07-20T11:05:59;0.20;;;0.20;;
22287;SDS011;11312;51.464;6.968;2023-07-20T11:08:40;0.38;;;0.38;;
22287;SDS011;11312;51.464;6.968;2023-07-20T11:11:25;1.05;;;0.70;;
22287;SDS011;11312;51.464;6.968;2023-07-20T11:14:02;1.33;;;0.73;;
22287;SDS011;11312;51.464;6.968;2023-07-20T11:16:34;2.05;;;0.73;;
22287;SDS011;11312;51.464;6.968;2023-07-20T11:19:01;1.00;;;0.57;;
22287;SDS011;11312;51.464;6.968;2023-07-20T11:21:28;0.60;;;0.55;;
22287;SDS011;11312;51.464;6.968;2023-07-20T11:23:54;1.65;;;0.57;;
22287;SDS011;11312;51.464;6.968;2023-07-20T11:26:21;0.75;;;0.50;;
22287;SDS011;11312;51.464;6.968;2023-07-20T11:28:50;0.20;;;0.20;;
22287;SDS011;11312;51.464;6.968;2023-07-20T11:31:17;0.20;;;0.20;;
22287;SDS011;11312;51.464;6.968;2023-07-20T11:33:43;0.40;;;0.30;;
22287;SDS011;11312;51.464;6.968;2023-07-20T11:36:08;0.70;;;0.57;;
22287;SDS011;11312;51.464;6.968;2023-07-20T11:38:34;1.08;;;0.60;;
22287;SDS011;11312;51.464;6.968;2023-07-20T11:41:02;0.80;;;0.68;;
22287;SDS011;11312;51.464;6.968;2023-07-20T11:43:28;1.15;;;0.57;;
22287;SDS011;11312;51.464;6.968;2023-07-20T11:45:55;0.20;;;0.20;;
22287;SDS011;11312;51.464;6.968;2023-07-20T11:48:21;0.55;;;0.25;;
22287;SDS011;11312;51.464;6.968;2023-07-20T11:50:47;0.80;;;0.40;;
22287;SDS011;11312;51.464;6.968;2023-07-20T11:53:13;5.95;;;1.38;;
22287;SDS011;11312;51.464;6.968;2023-07-20T11:55:40;0.30;;;0.30;;
22287;SDS011;11312;51.464;6.968;2023-07-20T11:58:06;0.20;;;0.20;;
22287;SDS011;11312;51.464;6.968;2023-07-20T12:00:33;4.20;;;0.60;;
22287;SDS011;11312;51.464;6.968;2023-07-20T12:03:00;0.65;;;0.50;;
22287;SDS011;11312;51.464;6.968;2023-07-20T12:05:26;0.28;;;0.28;;
22287;SDS011;11312;51.464;6.968;2023-07-20T12:07:52;1.77;;;0.57;;
22287;SDS011;11312;51.464;6.968;2023-07-20T12:10:25;0.50;;;0.28;;
22287;SDS011;11312;51.464;6.968;2023-07-20T12:12:53;2.15;;;0.77;;
22287;SDS011;11312;51.464;6.968;2023-07-20T12:15:24;9.75;;;0.73;;
22287;SDS011;11312;51.464;6.968;2023-07-20T12:17:55;0.88;;;0.50;;
22287;SDS011;11312;51.464;6.968;2023-07-20T12:20:32;0.47;;;0.30;;
22287;SDS011;11312;51.464;6.968;2023-07-20T12:23:12;1.20;;;0.50;;
22287;SDS011;11312;51.464;6.968;2023-07-20T12:25:39;0.20;;;0.20;;
22287;SDS011;11312;51.464;6.968;2023-07-20T12:28:13;0.28;;;0.28;;
22287;SDS011;11312;51.464;6.968;2023-07-20T12:30:41;0.95;;;0.60;;
22287;SDS011;11312;51.464;6.968;2023-07-20T12:33:07;0.43;;;0.43;;
22287;SDS011;11312;51.464;6.968;2023-07-20T12:35:33;1.00;;;0.47;;
22287;SDS011;11312;51.464;6.968;2023-07-20T12:37:59;1.05;;;0.47;;
22287;SDS011;11312;51.464;6.968;2023-07-20T12:40:25;0.93;;;0.43;;
22287;SDS011;11312;51.464;6.968;2023-07-20T12:42:51;0.20;;;0.20;;
22287;SDS011;11312;51.464;6.968;2023-07-20T12:45:16;0.20;;;0.20;;
22287;SDS011;11312;51.464;6.968;2023-07-20T12:47:42;0.40;;;0.40;;
22287;SDS011;11312;51.464;6.968;2023-07-20T12:50:09;0.73;;;0.32;;
22287;SDS011;11312;51.464;6.968;2023-07-20T12:52:39;0.20;;;0.20;;
22287;SDS011;11312;51.464;6.968;2023-07-20T12:55:08;1.10;;;0.50;;
22287;SDS011;11312;51.464;6.968;2023-07-20T12:57:35;0.70;;;0.43;;
22287;SDS011;11312;51.464;6.968;2023-07-20T13:00:05;0.80;;;0.50;;
22287;SDS011;11312;51.464;6.968;2023-07-20T13:02:35;0.45;;;0.45;;
22287;SDS011;11312;51.464;6.968;2023-07-20T13:05:01;0.90;;;0.50;;
22287;SDS011;11312;51.464;6.968;2023-07-20T13:07:33;0.30;;;0.30;;
22287;SDS011;11312;51.464;6.968;2023-07-20T13:10:01;0.30;;;0.30;;
22287;SDS011;11312;51.464;6.968;2023-07-20T13:12:28;2.80;;;1.13;;
22287;SDS011;11312;51.464;6.968;2023-07-20T13:14:55;0.30;;;0.30;;
22287;SDS011;11312;51.464;6.968;2023-07-20T13:17:21;0.52;;;0.40;;
22287;SDS011;11312;51.464;6.968;2023-07-20T13:19:47;0.20;;;0.20;;
22287;SDS011;11312;51.464;6.968;2023-07-20T13:22:13;0.20;;;0.20;;
22287;SDS011;11312;51.464;6.968;2023-07-20T13:24:39;0.47;;;0.47;;
22287;SDS011;11312;51.464;6.968;2023-07-20T13:27:05;0.30;;;0.30;;
22287;SDS011;11312;51.464;6.968;2023-07-20T13:29:31;1.02;;;0.60;;
22287;SDS011;11312;51.464;6.968;2023-07-20T13:31:58;0.47;;;0.35;;
22287;SDS011;11312;51.464;6.968;2023-07-20T13:34:25;0.20;;;0.20;;
22287;SDS011;11312;51.464;6.968;2023-07-20T13:36:51;0.30;;;0.30;;
22287;SDS011;11312;51.464;6.968;2023-07-20T13:39:16;0.35;;;0.35;;
22287;SDS011;11312;51.464;6.968;2023-07-20T13:41:42;0.38;;;0.38;;
22287;SDS011;11312;51.464;6.968;2023-07-20T13:44:08;0.20;;;0.20;;
22287;SDS011;11312;51.464;6.968;2023-07-20T13:46:34;0.30;;;0.30;;
22287;SDS011;11312;51.464;6.968;2023-07-20T13:49:00;0.50;;;0.40;;
22287;SDS011;11312;51.464;6.968;2023-07-20T13:51:25;0.30;;;0.30;;
22287;SDS011;11312;51.464;6.968;2023-07-20T13:53:51;0.80;;;0.52;;
22287;SDS011;11312;51.464;6.968;2023-07-20T13:56:17;0.22;;;0.22;;
22287;SDS011;11312;51.464;6.968;2023-07-20T13:58:42;0.40;;;0.40;;
22287;SDS011;11312;51.464;6.968;2023-07-20T14:01:08;0.30;;;0.30;;
22287;SDS011;11312;51.464;6.968;2023-07-20T14:03:34;0.45;;;0.45;;
22287;SDS011;11312;51.464;6.968;2023-07-20T14:05:59;1.67;;;0.90;;
22287;SDS011;11312;51.464;6.968;2023-07-20T14:08:25;0.40;;;0.40;;
22287;SDS011;11312;51.464;6.968;2023-07-20T14:10:51;0.47;;;0.47;;
22287;SDS011;11312;51.464;6.968;2023-07-20T14:13:17;0.75;;;0.60;;
22287;SDS011;11312;51.464;6.968;2023-07-20T14:15:43;0.50;;;0.50;;
22287;SDS011;11312;51.464;6.968;2023-07-20T14:18:08;0.40;;;0.40;;
22287;SDS011;11312;51.464;6.968;2023-07-20T14:20:34;0.93;;;0.60;;
22287;SDS011;11312;51.464;6.968;2023-07-20T14:23:00;0.28;;;0.28;;
22287;SDS011;11312;51.464;6.968;2023-07-20T14:25:25;0.28;;;0.28;;
22287;SDS011;11312;51.464;6.968;2023-07-20T14:27:51;1.35;;;0.52;;
22287;SDS011;11312;51.464;6.968;2023-07-20T14:30:17;0.55;;;0.40;;
22287;SDS011;11312;51.464;6.968;2023-07-20T14:32:43;0.30;;;0.30;;
22287;SDS011;11312;51.464;6.968;2023-07-20T14:35:08;1.45;;;0.85;;
22287;SDS011;11312;51.464;6.968;2023-07-20T14:37:34;0.20;;;0.20;;
22287;SDS011;11312;51.464;6.968;2023-07-20T14:40:00;0.35;;;0.35;;
22287;SDS011;11312;51.464;6.968;2023-07-20T14:42:26;1.25;;;0.77;;
22287;SDS011;11312;51.464;6.968;2023-07-20T14:44:52;0.30;;;0.30;;
22287;SDS011;11312;51.464;6.968;2023-07-20T14:47:18;0.30;;;0.30;;
22287;SDS011;11312;51.464;6.968;2023-07-20T14:49:43;0.90;;;0.45;;
22287;SDS011;11312;51.464;6.968;2023-07-20T14:52:09;0.20;;;0.20;;
22287;SDS011;11312;51.464;6.968;2023-07-20T14:54:35;0.60;;;0.47;;
22287;SDS011;11312;51.464;6.968;2023-07-20T14:57:00;0.40;;;0.40;;
22287;SDS011;11312;51.464;6.968;2023-07-20T14:59:26;1.10;;;0.47;;
22287;SDS011;11312;51.464;6.968;2023-07-20T15:01:51;0.32;;;0.32;;
22287;SDS011;11312;51.464;6.968;2023-07-20T15:04:18;0.30;;;0.30;;
22287;SDS011;11312;51.464;6.968;2023-07-20T15:06:43;0.73;;;0.43;;